^^
Station Historical Data
Daily Summary for December 6, 2017 Units:  Both    English   Metric
« Previous Day
Next Day »
Daily Weekly Monthly Yearly Custom
  High: Low: Average:
Temperature: 53.8 °F /  12.1 °C 29.2 °F /  -1.6 °C 38.5 °F /  3.6 °C
Dew Point: 51.8 °F /  11 °C 16.7 °F /  -8.5 °C 25.5 °F /  -3.6 °C
Humidity: 93 % 39 % 61 %
Wind Speed: 15.2 mph /  24.5 km/h - 3.9 mph /  6.3 km/h
Wind Gust: 26.5 mph /  42.6 km/h - -
Wind:- - West
Pressure: 30.07 in /  1018.2 hPa 29.82 in /  1009.7 hPa -
Precipitation: 0.02 in /  0.51 mm    
Historical Graphs
 
 
Tabular Data for December 6, 2017
Time Temperature Dew Point Pressure Wind Wind Speed Wind Gust Humidity Rainfall Rate (Hourly) solar Conditions
00:03 53.7 °F /  12.1 °C 51.7 °F /  10.9 °C 29.82 in /  1009.7 hPa WSW 2.5 mph /  4 km/h 6.9 mph /  11.1 km/h 93 % 0.00 in /  0 mm 0.0 W/m2 RA
00:08 53.7 °F /  12.1 °C 51.7 °F /  10.9 °C 29.82 in /  1009.7 hPa SW 1.3 mph /  2.1 km/h 8.1 mph /  13 km/h 93 % 0.00 in /  0 mm 0.0 W/m2 RA
00:13 53.8 °F /  12.1 °C 51.8 °F /  11 °C 29.82 in /  1009.7 hPa WSW 0.9 mph /  1.4 km/h 8.1 mph /  13 km/h 93 % 0.00 in /  0 mm 0.0 W/m2 BKN
00:18 53.8 °F /  12.1 °C 51.8 °F /  11 °C 29.82 in /  1009.7 hPa WSW 2.0 mph /  3.2 km/h 8.1 mph /  13 km/h 93 % 0.00 in /  0 mm 0.0 W/m2 BKN
00:23 53.7 °F /  12.1 °C 51.7 °F /  10.9 °C 29.82 in /  1009.7 hPa Calm   8.1 mph /  13 km/h 93 % 0.00 in /  0 mm 0.0 W/m2 FEW
00:28 53.6 °F /  12 °C 51.6 °F /  10.9 °C 29.82 in /  1009.7 hPa Calm   10.4 mph /  16.7 km/h 93 % 0.00 in /  0 mm 0.0 W/m2 FEW
00:33 53.6 °F /  12 °C 51.6 °F /  10.9 °C 29.82 in /  1009.7 hPa WSW 0.7 mph /  1.1 km/h 10.4 mph /  16.7 km/h 93 % 0.00 in /  0 mm 0.0 W/m2 FEW
00:38 53.5 °F /  11.9 °C 51.5 °F /  10.8 °C 29.82 in /  1009.7 hPa Calm   5.8 mph /  9.3 km/h 93 % 0.00 in /  0 mm 0.0 W/m2 FEW
00:43 53.6 °F /  12 °C 51.6 °F /  10.9 °C 29.82 in /  1009.7 hPa West 2.4 mph /  3.9 km/h 6.9 mph /  11.1 km/h 93 % 0.00 in /  0 mm 0.0 W/m2 FEW
00:48 53.6 °F /  12 °C 51.6 °F /  10.9 °C 29.82 in /  1009.7 hPa SW 0.6 mph /  1 km/h 6.9 mph /  11.1 km/h 93 % 0.00 in /  0 mm 0.0 W/m2 FEW
00:53 53.6 °F /  12 °C 51.6 °F /  10.9 °C 29.82 in /  1009.7 hPa Calm   6.9 mph /  11.1 km/h 93 % 0.00 in /  0 mm 0.0 W/m2 FEW
00:58 53.5 °F /  11.9 °C 51.5 °F /  10.8 °C 29.82 in /  1009.7 hPa West 0.3 mph /  0.5 km/h 5.8 mph /  9.3 km/h 93 % 0.00 in /  0 mm 0.0 W/m2 FEW
01:04 53.1 °F /  11.7 °C 50.8 °F /  10.4 °C 29.83 in /  1010 hPa WNW 6.5 mph /  10.5 km/h 25.3 mph /  40.7 km/h 92 % 0.00 in /  0 mm 0.0 W/m2 OVC
01:09 51.7 °F /  10.9 °C 49.2 °F /  9.6 °C 29.84 in /  1010.4 hPa NNW 6.6 mph /  10.6 km/h 25.3 mph /  40.7 km/h 91 % 0.00 in /  0 mm 0.0 W/m2 OVC
01:14 50.9 °F /  10.5 °C 48.4 °F /  9.1 °C 29.86 in /  1011.1 hPa WNW 5.2 mph /  8.4 km/h 19.6 mph /  31.5 km/h 91 % 0.00 in /  0 mm 0.0 W/m2 OVC
01:15 50.8 °F /  10.4 °C 48.3 °F /  9.1 °C 29.86 in /  1011.1 hPa WNW 5.5 mph /  8.9 km/h 19.6 mph /  31.5 km/h 91 % 0.00 in /  0 mm 0.0 W/m2 OVC
01:20 50.1 °F /  10.1 °C 47.3 °F /  8.5 °C 29.87 in /  1011.4 hPa West 12.2 mph /  19.6 km/h 23.0 mph /  37 km/h 90 % 0.01 in /  0.25 mm 0.0 W/m2 RA
01:25 49.7 °F /  9.8 °C 46.9 °F /  8.3 °C 29.88 in /  1011.7 hPa WNW 3.0 mph /  4.8 km/h 23.0 mph /  37 km/h 90 % 0.01 in /  0.25 mm 0.0 W/m2 RA
01:30 48.7 °F /  9.3 °C 45.3 °F /  7.4 °C 29.86 in /  1011.1 hPa WNW 4.1 mph /  6.6 km/h 24.2 mph /  38.9 km/h 88 % 0.01 in /  0.25 mm 0.0 W/m2 OVC
01:35 47.6 °F /  8.7 °C 44.2 °F /  6.8 °C 29.87 in /  1011.4 hPa WNW 4.7 mph /  7.6 km/h 24.2 mph /  38.9 km/h 88 % 0.02 in /  0.51 mm 0.0 W/m2 RA
01:40 47.1 °F /  8.4 °C 44.0 °F /  6.7 °C 29.88 in /  1011.7 hPa WNW 4.9 mph /  7.9 km/h 19.6 mph /  31.5 km/h 89 % 0.02 in /  0.51 mm 0.0 W/m2 RA
01:45 46.8 °F /  8.2 °C 43.7 °F /  6.5 °C 29.88 in /  1011.7 hPa WNW 8.1 mph /  13 km/h 15.0 mph /  24.1 km/h 89 % 0.02 in /  0.51 mm 0.0 W/m2 OVC
01:50 46.6 °F /  8.1 °C 43.5 °F /  6.4 °C 29.89 in /  1012.1 hPa NW 6.9 mph /  11.1 km/h 17.3 mph /  27.8 km/h 89 % 0.02 in /  0.51 mm 0.0 W/m2 -RA
01:55 46.3 °F /  7.9 °C 43.2 °F /  6.2 °C 29.89 in /  1012.1 hPa WNW 5.5 mph /  8.9 km/h 17.3 mph /  27.8 km/h 89 % 0.02 in /  0.51 mm 0.0 W/m2 -RA
02:00 46.0 °F /  7.8 °C 42.6 °F /  5.9 °C 29.89 in /  1012.1 hPa West 7.6 mph /  12.2 km/h 19.6 mph /  31.5 km/h 88 % 0.02 in /  0.51 mm 0.0 W/m2 -RA
02:05 46.0 °F /  7.8 °C 42.6 °F /  5.9 °C 29.89 in /  1012.1 hPa WSW 2.4 mph /  3.9 km/h 19.6 mph /  31.5 km/h 88 % 0.02 in /  0.51 mm 0.0 W/m2 -RA
02:10 45.9 °F /  7.7 °C 42.5 °F /  5.8 °C 29.89 in /  1012.1 hPa West 1.2 mph /  1.9 km/h 16.1 mph /  25.9 km/h 88 % 0.02 in /  0.51 mm 0.0 W/m2 -RA
02:15 45.7 °F /  7.6 °C 42.1 °F /  5.6 °C 29.89 in /  1012.1 hPa Calm   8.1 mph /  13 km/h 87 % 0.02 in /  0.51 mm 0.0 W/m2 -RA
02:20 45.5 °F /  7.5 °C 41.9 °F /  5.5 °C 29.89 in /  1012.1 hPa WSW 5.1 mph /  8.2 km/h 10.4 mph /  16.7 km/h 87 % 0.01 in /  0.25 mm 0.0 W/m2 -RA
02:25 45.4 °F /  7.4 °C 41.5 °F /  5.3 °C 29.89 in /  1012.1 hPa West 2.3 mph /  3.7 km/h 10.4 mph /  16.7 km/h 86 % 0.01 in /  0.25 mm 0.0 W/m2 -RA
02:30 45.4 °F /  7.4 °C 41.2 °F /  5.1 °C 29.89 in /  1012.1 hPa West 1.2 mph /  1.9 km/h 10.4 mph /  16.7 km/h 85 % 0.01 in /  0.25 mm 0.0 W/m2 -RA
02:35 45.4 °F /  7.4 °C 40.8 °F /  4.9 °C 29.90 in /  1012.4 hPa WSW 0.3 mph /  0.5 km/h 9.2 mph /  14.8 km/h 84 % 0.00 in /  0 mm 0.0 W/m2 -RA
02:40 45.3 °F /  7.4 °C 40.7 °F /  4.8 °C 29.90 in /  1012.4 hPa West 1.0 mph /  1.6 km/h 5.8 mph /  9.3 km/h 84 % 0.00 in /  0 mm 0.0 W/m2 -RA
02:45 45.4 °F /  7.4 °C 40.5 °F /  4.7 °C 29.90 in /  1012.4 hPa WSW 1.8 mph /  2.9 km/h 9.2 mph /  14.8 km/h 83 % 0.00 in /  0 mm 0.0 W/m2 -RA
02:50 45.4 °F /  7.4 °C 40.2 °F /  4.6 °C 29.90 in /  1012.4 hPa SW 4.4 mph /  7.1 km/h 11.5 mph /  18.5 km/h 82 % 0.00 in /  0 mm 0.0 W/m2 -RA
02:55 45.4 °F /  7.4 °C 39.9 °F /  4.4 °C 29.90 in /  1012.4 hPa West 4.4 mph /  7.1 km/h 11.5 mph /  18.5 km/h 81 % 0.00 in /  0 mm 0.0 W/m2 -RA
02:56 45.4 °F /  7.4 °C 39.9 °F /  4.4 °C 29.90 in /  1012.4 hPa West 5.2 mph /  8.4 km/h 11.5 mph /  18.5 km/h 81 % 0.00 in /  0 mm 0.0 W/m2 -RA
03:01 45.5 °F /  7.5 °C 39.7 °F /  4.3 °C 29.90 in /  1012.4 hPa NW 2.4 mph /  3.9 km/h 11.5 mph /  18.5 km/h 80 % 0.00 in /  0 mm 0.0 W/m2 OVC
03:06 45.5 °F /  7.5 °C 39.4 °F /  4.1 °C 29.91 in /  1012.8 hPa West 4.8 mph /  7.7 km/h 11.5 mph /  18.5 km/h 79 % 0.00 in /  0 mm 0.0 W/m2 OVC
03:11 45.6 °F /  7.6 °C 39.1 °F /  3.9 °C 29.91 in /  1012.8 hPa West 2.6 mph /  4.2 km/h 10.4 mph /  16.7 km/h 78 % 0.00 in /  0 mm 0.0 W/m2 OVC
03:16 45.5 °F /  7.5 °C 39.0 °F /  3.9 °C 29.91 in /  1012.8 hPa West 6.1 mph /  9.8 km/h 11.5 mph /  18.5 km/h 78 % 0.00 in /  0 mm 0.0 W/m2 OVC
03:21 45.4 °F /  7.4 °C 38.9 °F /  3.8 °C 29.91 in /  1012.8 hPa WNW 5.5 mph /  8.9 km/h 11.5 mph /  18.5 km/h 78 % 0.00 in /  0 mm 0.0 W/m2 OVC
03:26 45.4 °F /  7.4 °C 38.6 °F /  3.7 °C 29.91 in /  1012.8 hPa West 4.9 mph /  7.9 km/h 13.8 mph /  22.2 km/h 77 % 0.00 in /  0 mm 0.0 W/m2 OVC
03:31 45.4 °F /  7.4 °C 38.3 °F /  3.5 °C 29.91 in /  1012.8 hPa WNW 8.3 mph /  13.4 km/h 13.8 mph /  22.2 km/h 76 % 0.00 in /  0 mm 0.0 W/m2 OVC
03:36 45.2 °F /  7.3 °C 37.1 °F /  2.8 °C 29.91 in /  1012.8 hPa NW 10.6 mph /  17.1 km/h 19.6 mph /  31.5 km/h 73 % 0.00 in /  0 mm 0.0 W/m2 OVC
03:41 45.0 °F /  7.2 °C 35.8 °F /  2.1 °C 29.91 in /  1012.8 hPa NW 14.2 mph /  22.9 km/h 19.6 mph /  31.5 km/h 70 % 0.00 in /  0 mm 0.0 W/m2 OVC
03:47 44.8 °F /  7.1 °C 34.5 °F /  1.4 °C 29.92 in /  1013.1 hPa West 11.0 mph /  17.7 km/h 20.7 mph /  33.3 km/h 67 % 0.00 in /  0 mm 0.0 W/m2 OVC
03:52 44.8 °F /  7.1 °C 34.1 °F /  1.2 °C 29.92 in /  1013.1 hPa WNW 10.9 mph /  17.5 km/h 20.7 mph /  33.3 km/h 66 % 0.00 in /  0 mm 0.0 W/m2 OVC
03:57 44.6 °F /  7 °C 33.9 °F /  1.1 °C 29.92 in /  1013.1 hPa WNW 6.0 mph /  9.7 km/h 20.7 mph /  33.3 km/h 66 % 0.00 in /  0 mm 0.0 W/m2 OVC
04:02 44.3 °F /  6.8 °C 34.0 °F /  1.1 °C 29.93 in /  1013.4 hPa WNW 6.4 mph /  10.3 km/h 17.3 mph /  27.8 km/h 67 % 0.00 in /  0 mm 0.0 W/m2 BKN
04:07 43.8 °F /  6.6 °C 33.2 °F /  0.7 °C 29.93 in /  1013.4 hPa WNW 8.8 mph /  14.2 km/h 17.3 mph /  27.8 km/h 66 % 0.00 in /  0 mm 0.0 W/m2 BKN
04:12 43.3 °F /  6.3 °C 31.9 °F /  -0.1 °C 29.94 in /  1013.8 hPa West 12.5 mph /  20.1 km/h 23.0 mph /  37 km/h 64 % 0.00 in /  0 mm 0.0 W/m2 BKN
04:13 43.2 °F /  6.2 °C 31.8 °F /  -0.1 °C 29.94 in /  1013.8 hPa West 12.2 mph /  19.6 km/h 23.0 mph /  37 km/h 64 % 0.00 in /  0 mm 0.0 W/m2 BKN
04:18 42.6 °F /  5.9 °C 30.1 °F /  -1.1 °C 29.95 in /  1014.1 hPa WNW 14.6 mph /  23.5 km/h 23.0 mph /  37 km/h 61 % 0.00 in /  0 mm 0.0 W/m2 BKN
04:23 42.0 °F /  5.6 °C 28.7 °F /  -1.8 °C 29.96 in /  1014.4 hPa West 14.3 mph /  23 km/h 24.2 mph /  38.9 km/h 59 % 0.00 in /  0 mm 0.0 W/m2 BKN
04:24 41.9 °F /  5.5 °C 28.6 °F /  -1.9 °C 29.96 in /  1014.4 hPa WNW 15.0 mph /  24.1 km/h 24.2 mph /  38.9 km/h 59 % 0.00 in /  0 mm 0.0 W/m2 BKN
04:34 40.9 °F /  4.9 °C 27.7 °F /  -2.4 °C 29.97 in /  1014.8 hPa WNW 15.2 mph /  24.5 km/h 26.5 mph /  42.6 km/h 59 % 0.00 in /  0 mm 0.0 W/m2 BKN
04:39 40.6 °F /  4.8 °C 27.0 °F /  -2.8 °C 29.97 in /  1014.8 hPa WNW 14.1 mph /  22.7 km/h 26.5 mph /  42.6 km/h 58 % 0.00 in /  0 mm 0.0 W/m2 BKN
04:44 40.4 °F /  4.7 °C 26.4 °F /  -3.1 °C 29.97 in /  1014.8 hPa WNW 14.3 mph /  23 km/h 24.2 mph /  38.9 km/h 57 % 0.00 in /  0 mm 0.0 W/m2 BKN
04:49 40.1 °F /  4.5 °C 25.2 °F /  -3.8 °C 29.97 in /  1014.8 hPa West 12.5 mph /  20.1 km/h 24.2 mph /  38.9 km/h 55 % 0.00 in /  0 mm 0.0 W/m2 BKN
04:59 39.7 °F /  4.3 °C 25.7 °F /  -3.5 °C 29.98 in /  1015.1 hPa West 11.5 mph /  18.5 km/h 21.9 mph /  35.2 km/h 57 % 0.00 in /  0 mm 0.0 W/m2 BKN
05:04 39.6 °F /  4.2 °C 25.6 °F /  -3.6 °C 29.98 in /  1015.1 hPa SW 6.8 mph /  10.9 km/h 20.7 mph /  33.3 km/h 57 % 0.00 in /  0 mm 0.0 W/m2 BKN
05:09 39.4 °F /  4.1 °C 25.4 °F /  -3.7 °C 29.98 in /  1015.1 hPa WNW 11.0 mph /  17.7 km/h 17.3 mph /  27.8 km/h 57 % 0.00 in /  0 mm 0.0 W/m2 BKN
05:14 39.3 °F /  4.1 °C 25.3 °F /  -3.7 °C 29.98 in /  1015.1 hPa West 13.2 mph /  21.2 km/h 23.0 mph /  37 km/h 57 % 0.00 in /  0 mm 0.0 W/m2 BKN
05:19 39.2 °F /  4 °C 24.8 °F /  -4 °C 29.98 in /  1015.1 hPa WNW 9.2 mph /  14.8 km/h 23.0 mph /  37 km/h 56 % 0.00 in /  0 mm 0.0 W/m2 BKN
05:24 39.0 °F /  3.9 °C 25.0 °F /  -3.9 °C 29.98 in /  1015.1 hPa WNW 14.9 mph /  24 km/h 19.6 mph /  31.5 km/h 57 % 0.00 in /  0 mm 0.0 W/m2 BKN
05:29 38.8 °F /  3.8 °C 24.9 °F /  -3.9 °C 29.99 in /  1015.5 hPa West 7.5 mph /  12.1 km/h 20.7 mph /  33.3 km/h 57 % 0.00 in /  0 mm 0.0 W/m2 BKN
05:35 38.6 °F /  3.7 °C 25.1 °F /  -3.8 °C 29.99 in /  1015.5 hPa WSW 1.8 mph /  2.9 km/h 20.7 mph /  33.3 km/h 58 % 0.00 in /  0 mm 0.0 W/m2 BKN
05:40 38.3 °F /  3.5 °C 26.0 °F /  -3.3 °C 30.00 in /  1015.8 hPa WSW 6.1 mph /  9.8 km/h 15.0 mph /  24.1 km/h 61 % 0.00 in /  0 mm 0.0 W/m2 BKN
05:45 38.1 °F /  3.4 °C 25.4 °F /  -3.7 °C 30.01 in /  1016.1 hPa West 10.6 mph /  17.1 km/h 17.3 mph /  27.8 km/h 60 % 0.00 in /  0 mm 0.0 W/m2 BKN
05:50 38.1 °F /  3.4 °C 25.0 °F /  -3.9 °C 30.00 in /  1015.8 hPa WNW 6.7 mph /  10.8 km/h 17.3 mph /  27.8 km/h 59 % 0.00 in /  0 mm 0.0 W/m2 BKN
05:55 38.0 °F /  3.3 °C 24.9 °F /  -3.9 °C 30.00 in /  1015.8 hPa WNW 7.4 mph /  11.9 km/h 17.3 mph /  27.8 km/h 59 % 0.00 in /  0 mm 0.0 W/m2 BKN
06:00 37.9 °F /  3.3 °C 25.2 °F /  -3.8 °C 30.01 in /  1016.1 hPa NW 5.9 mph /  9.5 km/h 11.5 mph /  18.5 km/h 60 % 0.00 in /  0 mm 0.0 W/m2 BKN
06:05 37.8 °F /  3.2 °C 25.1 °F /  -3.8 °C 30.01 in /  1016.1 hPa WNW 5.0 mph /  8 km/h 12.0 mph /  19.3 km/h 60 % 0.00 in /  0 mm 0.0 W/m2 CLR
06:10 37.7 °F /  3.2 °C 25.1 °F /  -3.8 °C 30.01 in /  1016.1 hPa WNW 8.2 mph /  13.2 km/h 17.3 mph /  27.8 km/h 60 % 0.00 in /  0 mm 0.0 W/m2 CLR
06:15 37.5 °F /  3.1 °C 24.9 °F /  -3.9 °C 30.01 in /  1016.1 hPa WNW 6.4 mph /  10.3 km/h 17.3 mph /  27.8 km/h 60 % 0.00 in /  0 mm 0.0 W/m2 CLR
06:20 37.3 °F /  2.9 °C 24.3 °F /  -4.3 °C 30.01 in /  1016.1 hPa WNW 9.0 mph /  14.5 km/h 17.0 mph /  27.4 km/h 59 % 0.00 in /  0 mm 0.0 W/m2 CLR
06:25 37.1 °F /  2.8 °C 23.7 °F /  -4.6 °C 30.02 in /  1016.5 hPa WNW 9.0 mph /  14.5 km/h 17.0 mph /  27.4 km/h 58 % 0.00 in /  0 mm 0.0 W/m2 CLR
06:35 36.7 °F /  2.6 °C 23.3 °F /  -4.8 °C 30.02 in /  1016.5 hPa WNW 6.0 mph /  9.7 km/h 14.0 mph /  22.5 km/h 58 % 0.00 in /  0 mm 0.0 W/m2 CLR
06:40 36.4 °F /  2.4 °C 23.0 °F /  -5 °C 30.02 in /  1016.5 hPa NW 5.5 mph /  8.9 km/h 15.0 mph /  24.1 km/h 58 % 0.00 in /  0 mm 0.0 W/m2 CLR
06:45 36.2 °F /  2.3 °C 23.2 °F /  -4.9 °C 30.02 in /  1016.5 hPa WNW 4.6 mph /  7.4 km/h 15.0 mph /  24.1 km/h 59 % 0.00 in /  0 mm 0.0 W/m2 CLR
06:50 36.0 °F /  2.2 °C 23.5 °F /  -4.7 °C 30.02 in /  1016.5 hPa West 1.0 mph /  1.6 km/h 10.0 mph /  16.1 km/h 60 % 0.00 in /  0 mm 0.0 W/m2 CLR
06:55 35.9 °F /  2.2 °C 23.3 °F /  -4.8 °C 30.02 in /  1016.5 hPa WNW 10.0 mph /  16.1 km/h 17.0 mph /  27.4 km/h 60 % 0.00 in /  0 mm 0.0 W/m2 CLR
07:00 35.7 °F /  2.1 °C 22.8 °F /  -5.1 °C 30.03 in /  1016.8 hPa WNW 8.3 mph /  13.4 km/h 18.4 mph /  29.6 km/h 59 % 0.00 in /  0 mm 0.0 W/m2 CLR
07:05 35.6 °F /  2 °C 22.3 °F /  -5.4 °C 30.03 in /  1016.8 hPa WNW 9.0 mph /  14.5 km/h 20.0 mph /  32.2 km/h 58 % 0.00 in /  0 mm 0.0 W/m2 CLR
07:10 35.5 °F /  1.9 °C 21.8 °F /  -5.7 °C 30.04 in /  1017.2 hPa WNW 13.0 mph /  20.9 km/h 18.0 mph /  29 km/h 57 % 0.00 in /  0 mm 0.0 W/m2 CLR
07:15 35.5 °F /  1.9 °C 21.8 °F /  -5.7 °C 30.04 in /  1017.2 hPa NW 4.5 mph /  7.2 km/h 18.4 mph /  29.6 km/h 57 % 0.00 in /  0 mm 0.0 W/m2 CLR
07:20 35.3 °F /  1.8 °C 21.2 °F /  -6 °C 30.04 in /  1017.2 hPa WNW 7.0 mph /  11.3 km/h 12.0 mph /  19.3 km/h 56 % 0.00 in /  0 mm 0.0 W/m2 CLR
07:25 35.1 °F /  1.7 °C 21.0 °F /  -6.1 °C 30.04 in /  1017.2 hPa WNW 6.0 mph /  9.7 km/h 16.0 mph /  25.7 km/h 56 % 0.00 in /  0 mm 7.0 W/m2 CLR
07:30 35.0 °F /  1.7 °C 21.3 °F /  -5.9 °C 30.04 in /  1017.2 hPa WNW 2.7 mph /  4.3 km/h 16.1 mph /  25.9 km/h 57 % 0.00 in /  0 mm 11.0 W/m2 CLR
07:35 34.9 °F /  1.6 °C 21.2 °F /  -6 °C 30.04 in /  1017.2 hPa WNW 8.0 mph /  12.9 km/h 12.0 mph /  19.3 km/h 57 % 0.00 in /  0 mm 14.0 W/m2 CLR
07:40 35.0 °F /  1.7 °C 21.3 °F /  -5.9 °C 30.04 in /  1017.2 hPa WNW 5.5 mph /  8.9 km/h 12.7 mph /  20.4 km/h 57 % 0.00 in /  0 mm 19.0 W/m2 CLR
07:45 34.9 °F /  1.6 °C 21.6 °F /  -5.8 °C 30.04 in /  1017.2 hPa WNW 4.7 mph /  7.6 km/h 12.7 mph /  20.4 km/h 58 % 0.00 in /  0 mm 25.0 W/m2 CLR
07:50 34.8 °F /  1.6 °C 21.5 °F /  -5.8 °C 30.05 in /  1017.5 hPa Calm   11.5 mph /  18.5 km/h 58 % 0.00 in /  0 mm 26.0 W/m2 CLR
07:55 34.7 °F /  1.5 °C 21.4 °F /  -5.9 °C 30.04 in /  1017.2 hPa WNW 1.1 mph /  1.8 km/h 11.5 mph /  18.5 km/h 58 % 0.00 in /  0 mm 32.0 W/m2 CLR
08:00 34.7 °F /  1.5 °C 21.8 °F /  -5.7 °C 30.05 in /  1017.5 hPa WNW 4.0 mph /  6.4 km/h 8.1 mph /  13 km/h 59 % 0.00 in /  0 mm 44.0 W/m2 CLR
08:05 34.7 °F /  1.5 °C 21.8 °F /  -5.7 °C 30.05 in /  1017.5 hPa West 0.6 mph /  1 km/h 8.1 mph /  13 km/h 59 % 0.00 in /  0 mm 49.0 W/m2 CLR
08:10 34.7 °F /  1.5 °C 21.8 °F /  -5.7 °C 30.05 in /  1017.5 hPa West 4.3 mph /  6.9 km/h 10.4 mph /  16.7 km/h 59 % 0.00 in /  0 mm 53.0 W/m2 CLR
08:15 34.7 °F /  1.5 °C 22.2 °F /  -5.4 °C 30.05 in /  1017.5 hPa WNW 0.8 mph /  1.3 km/h 10.4 mph /  16.7 km/h 60 % 0.00 in /  0 mm 58.0 W/m2 CLR
08:20 34.9 °F /  1.6 °C 22.4 °F /  -5.3 °C 30.05 in /  1017.5 hPa Calm   11.5 mph /  18.5 km/h 60 % 0.00 in /  0 mm 62.0 W/m2 CLR
08:25 34.9 °F /  1.6 °C 22.8 °F /  -5.1 °C 30.05 in /  1017.5 hPa Calm   11.5 mph /  18.5 km/h 61 % 0.00 in /  0 mm 67.0 W/m2 CLR
08:30 34.9 °F /  1.6 °C 22.8 °F /  -5.1 °C 30.05 in /  1017.5 hPa WNW 1.8 mph /  2.9 km/h 6.9 mph /  11.1 km/h 61 % 0.00 in /  0 mm 72.0 W/m2 CLR
08:35 34.8 °F /  1.6 °C 23.1 °F /  -4.9 °C 30.06 in /  1017.8 hPa WNW 2.6 mph /  4.2 km/h 6.9 mph /  11.1 km/h 62 % 0.00 in /  0 mm 69.0 W/m2 CLR
08:40 34.7 °F /  1.5 °C 22.6 °F /  -5.2 °C 30.06 in /  1017.8 hPa West 3.7 mph /  6 km/h 10.4 mph /  16.7 km/h 61 % 0.00 in /  0 mm 62.0 W/m2 CLR
08:45 34.6 °F /  1.4 °C 22.5 °F /  -5.3 °C 30.06 in /  1017.8 hPa West 1.7 mph /  2.7 km/h 10.4 mph /  16.7 km/h 61 % 0.00 in /  0 mm 72.0 W/m2 CLR
08:46 34.6 °F /  1.4 °C 22.5 °F /  -5.3 °C 30.06 in /  1017.8 hPa West 2.3 mph /  3.7 km/h 10.4 mph /  16.7 km/h 61 % 0.00 in /  0 mm 72.0 W/m2 CLR
08:51 34.7 °F /  1.5 °C 22.2 °F /  -5.4 °C 30.06 in /  1017.8 hPa SW 7.4 mph /  11.9 km/h 10.4 mph /  16.7 km/h 60 % 0.00 in /  0 mm 74.0 W/m2 CLR
08:56 34.7 °F /  1.5 °C 22.2 °F /  -5.4 °C 30.06 in /  1017.8 hPa West 4.8 mph /  7.7 km/h 12.7 mph /  20.4 km/h 60 % 0.00 in /  0 mm 77.0 W/m2 CLR
09:01 34.7 °F /  1.5 °C 22.2 °F /  -5.4 °C 30.06 in /  1017.8 hPa West 2.8 mph /  4.5 km/h 12.7 mph /  20.4 km/h 60 % 0.00 in /  0 mm 79.0 W/m2 CLR
09:06 34.7 °F /  1.5 °C 22.6 °F /  -5.2 °C 30.06 in /  1017.8 hPa SW 2.1 mph /  3.4 km/h 10.4 mph /  16.7 km/h 61 % 0.00 in /  0 mm 83.0 W/m2 CLR
09:11 34.5 °F /  1.4 °C 22.8 °F /  -5.1 °C 30.06 in /  1017.8 hPa WSW 0.8 mph /  1.3 km/h 10.4 mph /  16.7 km/h 62 % 0.00 in /  0 mm 102.0 W/m2 CLR
09:16 34.6 °F /  1.4 °C 22.9 °F /  -5.1 °C 30.06 in /  1017.8 hPa West 2.8 mph /  4.5 km/h 10.4 mph /  16.7 km/h 62 % 0.00 in /  0 mm 135.0 W/m2 CLR
09:21 34.7 °F /  1.5 °C 22.6 °F /  -5.2 °C 30.07 in /  1018.2 hPa West 1.2 mph /  1.9 km/h 10.4 mph /  16.7 km/h 61 % 0.00 in /  0 mm 171.0 W/m2 CLR
09:26 35.0 °F /  1.7 °C 22.5 °F /  -5.3 °C 30.07 in /  1018.2 hPa West 3.8 mph /  6.1 km/h 10.4 mph /  16.7 km/h 60 % 0.00 in /  0 mm 227.0 W/m2 CLR
09:31 35.6 °F /  2 °C 23.5 °F /  -4.7 °C 30.06 in /  1017.8 hPa WSW 0.9 mph /  1.4 km/h 10.4 mph /  16.7 km/h 61 % 0.00 in /  0 mm 246.0 W/m2 CLR
09:36 36.1 °F /  2.3 °C 23.1 °F /  -4.9 °C 30.06 in /  1017.8 hPa West 2.6 mph /  4.2 km/h 10.4 mph /  16.7 km/h 59 % 0.00 in /  0 mm 248.0 W/m2 CLR
09:41 36.4 °F /  2.4 °C 22.6 °F /  -5.2 °C 30.07 in /  1018.2 hPa West 2.8 mph /  4.5 km/h 10.4 mph /  16.7 km/h 57 % 0.00 in /  0 mm 255.0 W/m2 CLR
09:46 36.7 °F /  2.6 °C 22.5 °F /  -5.3 °C 30.07 in /  1018.2 hPa West 9.4 mph /  15.1 km/h 12.7 mph /  20.4 km/h 56 % 0.00 in /  0 mm 200.0 W/m2 CLR
09:51 36.8 °F /  2.7 °C 22.6 °F /  -5.2 °C 30.07 in /  1018.2 hPa West 9.8 mph /  15.8 km/h 18.4 mph /  29.6 km/h 56 % 0.00 in /  0 mm 218.0 W/m2 CLR
09:56 37.0 °F /  2.8 °C 22.3 °F /  -5.4 °C 30.07 in /  1018.2 hPa NNW 4.9 mph /  7.9 km/h 18.4 mph /  29.6 km/h 55 % 0.00 in /  0 mm 188.0 W/m2 CLR
10:01 37.1 °F /  2.8 °C 22.4 °F /  -5.3 °C 30.07 in /  1018.2 hPa WSW 3.7 mph /  6 km/h 11.5 mph /  18.5 km/h 55 % 0.00 in /  0 mm 160.0 W/m2 CLR
10:06 36.8 °F /  2.7 °C 21.3 °F /  -5.9 °C 30.06 in /  1017.8 hPa West 9.7 mph /  15.6 km/h 13.8 mph /  22.2 km/h 53 % 0.00 in /  0 mm 160.0 W/m2 CLR
10:11 36.6 °F /  2.6 °C 21.1 °F /  -6.1 °C 30.07 in /  1018.2 hPa West 0.1 mph /  0.2 km/h 16.1 mph /  25.9 km/h 53 % 0.00 in /  0 mm 141.0 W/m2 CLR
10:16 36.5 °F /  2.5 °C 21.0 °F /  -6.1 °C 30.07 in /  1018.2 hPa West 8.5 mph /  13.7 km/h 16.1 mph /  25.9 km/h 53 % 0.00 in /  0 mm 113.0 W/m2 CLR
10:21 36.2 °F /  2.3 °C 20.7 °F /  -6.3 °C 30.07 in /  1018.2 hPa NW 3.5 mph /  5.6 km/h 17.3 mph /  27.8 km/h 53 % 0.00 in /  0 mm 120.0 W/m2 CLR
10:26 36.2 °F /  2.3 °C 21.1 °F /  -6.1 °C 30.07 in /  1018.2 hPa West 7.6 mph /  12.2 km/h 17.3 mph /  27.8 km/h 54 % 0.00 in /  0 mm 179.0 W/m2 CLR
10:31 36.3 °F /  2.4 °C 21.2 °F /  -6 °C 30.07 in /  1018.2 hPa WSW 7.4 mph /  11.9 km/h 15.0 mph /  24.1 km/h 54 % 0.00 in /  0 mm 156.0 W/m2 CLR
10:36 36.5 °F /  2.5 °C 21.0 °F /  -6.1 °C 30.07 in /  1018.2 hPa West 8.3 mph /  13.4 km/h 15.0 mph /  24.1 km/h 53 % 0.00 in /  0 mm 258.0 W/m2 CLR
10:41 36.9 °F /  2.7 °C 21.3 °F /  -5.9 °C 30.06 in /  1017.8 hPa West 4.2 mph /  6.8 km/h 17.3 mph /  27.8 km/h 53 % 0.00 in /  0 mm 496.0 W/m2 CLR
10:46 37.4 °F /  3 °C 20.4 °F /  -6.4 °C 30.07 in /  1018.2 hPa West 9.4 mph /  15.1 km/h 17.3 mph /  27.8 km/h 50 % 0.00 in /  0 mm 376.0 W/m2 CLR
10:51 37.4 °F /  3 °C 20.4 °F /  -6.4 °C 30.07 in /  1018.2 hPa WSW 14.3 mph /  23 km/h 17.3 mph /  27.8 km/h 50 % 0.00 in /  0 mm 234.0 W/m2 CLR
10:56 37.5 °F /  3.1 °C 20.1 °F /  -6.6 °C 30.06 in /  1017.8 hPa WNW 8.8 mph /  14.2 km/h 25.3 mph /  40.7 km/h 49 % 0.00 in /  0 mm 380.0 W/m2 CLR
11:01 38.0 °F /  3.3 °C 20.5 °F /  -6.4 °C 30.05 in /  1017.5 hPa West 8.8 mph /  14.2 km/h 25.3 mph /  40.7 km/h 49 % 0.00 in /  0 mm 283.0 W/m2 CLR
11:06 38.1 °F /  3.4 °C 20.1 °F /  -6.6 °C 30.04 in /  1017.2 hPa West 10.3 mph /  16.6 km/h 17.3 mph /  27.8 km/h 48 % 0.00 in /  0 mm 341.0 W/m2 CLR
11:11 38.3 °F /  3.5 °C 19.8 °F /  -6.8 °C 30.05 in /  1017.5 hPa WSW 9.8 mph /  15.8 km/h 17.3 mph /  27.8 km/h 47 % 0.00 in /  0 mm 422.0 W/m2 CLR
11:16 38.8 °F /  3.8 °C 19.2 °F /  -7.1 °C 30.04 in /  1017.2 hPa WSW 9.2 mph /  14.8 km/h 19.6 mph /  31.5 km/h 45 % 0.00 in /  0 mm 392.0 W/m2 CLR
11:21 38.8 °F /  3.8 °C 18.7 °F /  -7.4 °C 30.04 in /  1017.2 hPa West 10.0 mph /  16.1 km/h 19.6 mph /  31.5 km/h 44 % 0.00 in /  0 mm 250.0 W/m2 CLR
11:26 38.7 °F /  3.7 °C 18.1 °F /  -7.7 °C 30.04 in /  1017.2 hPa WNW 7.8 mph /  12.6 km/h 21.9 mph /  35.2 km/h 43 % 0.00 in /  0 mm 499.0 W/m2 CLR
11:31 38.6 °F /  3.7 °C 17.5 °F /  -8.1 °C 30.04 in /  1017.2 hPa WSW 7.7 mph /  12.4 km/h 21.9 mph /  35.2 km/h 42 % 0.00 in /  0 mm 320.0 W/m2 CLR
11:36 38.2 °F /  3.4 °C 17.1 °F /  -8.3 °C 30.04 in /  1017.2 hPa NW 11.8 mph /  19 km/h 19.6 mph /  31.5 km/h 42 % 0.00 in /  0 mm 359.0 W/m2 CLR
11:41 38.5 °F /  3.6 °C 17.4 °F /  -8.1 °C 30.03 in /  1016.8 hPa West 11.0 mph /  17.7 km/h 18.4 mph /  29.6 km/h 42 % 0.00 in /  0 mm 381.0 W/m2 CLR
11:46 38.6 °F /  3.7 °C 16.9 °F /  -8.4 °C 30.04 in /  1017.2 hPa WNW 8.9 mph /  14.3 km/h 18.4 mph /  29.6 km/h 41 % 0.00 in /  0 mm 413.0 W/m2 CLR
11:52 39.0 °F /  3.9 °C 17.8 °F /  -7.9 °C 30.03 in /  1016.8 hPa West 12.7 mph /  20.4 km/h 18.4 mph /  29.6 km/h 42 % 0.00 in /  0 mm 432.0 W/m2 CLR
11:57 38.8 °F /  3.8 °C 17.1 °F /  -8.3 °C 30.03 in /  1016.8 hPa West 8.6 mph /  13.8 km/h 20.7 mph /  33.3 km/h 41 % 0.00 in /  0 mm 471.0 W/m2 CLR
12:02 39.0 °F /  3.9 °C 16.7 °F /  -8.5 °C 30.03 in /  1016.8 hPa West 10.6 mph /  17.1 km/h 20.7 mph /  33.3 km/h 40 % 0.00 in /  0 mm 468.0 W/m2 CLR
12:07 39.1 °F /  3.9 °C 17.4 °F /  -8.1 °C 30.03 in /  1016.8 hPa SW 2.9 mph /  4.7 km/h 19.6 mph /  31.5 km/h 41 % 0.00 in /  0 mm 462.0 W/m2 CLR
12:12 39.2 °F /  4 °C 17.4 °F /  -8.1 °C 30.03 in /  1016.8 hPa West 10.9 mph /  17.5 km/h 19.6 mph /  31.5 km/h 41 % 0.00 in /  0 mm 461.0 W/m2 CLR
12:17 39.5 °F /  4.2 °C 17.7 °F /  -7.9 °C 30.03 in /  1016.8 hPa SW 9.3 mph /  15 km/h 19.6 mph /  31.5 km/h 41 % 0.00 in /  0 mm 459.0 W/m2 CLR
12:22 39.6 °F /  4.2 °C 17.8 °F /  -7.9 °C 30.03 in /  1016.8 hPa SW 6.0 mph /  9.7 km/h 18.4 mph /  29.6 km/h 41 % 0.00 in /  0 mm 455.0 W/m2 CLR
12:27 39.9 °F /  4.4 °C 18.1 °F /  -7.7 °C 30.02 in /  1016.5 hPa West 11.0 mph /  17.7 km/h 19.6 mph /  31.5 km/h 41 % 0.00 in /  0 mm 452.0 W/m2 CLR
12:32 40.1 °F /  4.5 °C 17.7 °F /  -7.9 °C 30.02 in /  1016.5 hPa WSW 8.4 mph /  13.5 km/h 19.6 mph /  31.5 km/h 40 % 0.00 in /  0 mm 450.0 W/m2 CLR
12:37 40.0 °F /  4.4 °C 18.2 °F /  -7.7 °C 30.01 in /  1016.1 hPa West 5.5 mph /  8.9 km/h 19.6 mph /  31.5 km/h 41 % 0.00 in /  0 mm 443.0 W/m2 CLR
12:42 39.9 °F /  4.4 °C 17.5 °F /  -8.1 °C 30.01 in /  1016.1 hPa WSW 1.9 mph /  3.1 km/h 16.1 mph /  25.9 km/h 40 % 0.00 in /  0 mm 441.0 W/m2 CLR
12:47 40.1 °F /  4.5 °C 17.7 °F /  -7.9 °C 30.01 in /  1016.1 hPa West 11.2 mph /  18 km/h 15.0 mph /  24.1 km/h 40 % 0.00 in /  0 mm 436.0 W/m2 CLR
12:52 40.2 °F /  4.6 °C 18.3 °F /  -7.6 °C 30.01 in /  1016.1 hPa WSW 5.9 mph /  9.5 km/h 15.0 mph /  24.1 km/h 41 % 0.00 in /  0 mm 432.0 W/m2 CLR
12:57 40.5 °F /  4.7 °C 18.0 °F /  -7.8 °C 30.01 in /  1016.1 hPa WSW 8.8 mph /  14.2 km/h 15.0 mph /  24.1 km/h 40 % 0.00 in /  0 mm 427.0 W/m2 CLR
13:02 40.3 °F /  4.6 °C 17.9 °F /  -7.8 °C 30.01 in /  1016.1 hPa WSW 4.4 mph /  7.1 km/h 19.6 mph /  31.5 km/h 40 % 0.00 in /  0 mm 415.0 W/m2 CLR
13:07 40.6 °F /  4.8 °C 18.7 °F /  -7.4 °C 30.01 in /  1016.1 hPa WNW 4.4 mph /  7.1 km/h 19.6 mph /  31.5 km/h 41 % 0.00 in /  0 mm 343.0 W/m2 CLR
13:12 40.3 °F /  4.6 °C 17.3 °F /  -8.2 °C 30.00 in /  1015.8 hPa WNW 9.3 mph /  15 km/h 18.4 mph /  29.6 km/h 39 % 0.00 in /  0 mm 264.0 W/m2 CLR
13:17 40.2 °F /  4.6 °C 18.3 °F /  -7.6 °C 30.00 in /  1015.8 hPa WSW 9.0 mph /  14.5 km/h 18.4 mph /  29.6 km/h 41 % 0.00 in /  0 mm 237.0 W/m2 CLR
13:22 40.3 °F /  4.6 °C 17.9 °F /  -7.8 °C 30.00 in /  1015.8 hPa West 6.5 mph /  10.5 km/h 17.3 mph /  27.8 km/h 40 % 0.00 in /  0 mm 100.0 W/m2 CLR
13:23 40.3 °F /  4.6 °C 17.9 °F /  -7.8 °C 30.00 in /  1015.8 hPa WSW 7.0 mph /  11.3 km/h 17.3 mph /  27.8 km/h 40 % 0.00 in /  0 mm 100.0 W/m2 CLR
13:28 39.9 °F /  4.4 °C 17.5 °F /  -8.1 °C 30.00 in /  1015.8 hPa NW 5.0 mph /  8 km/h 17.3 mph /  27.8 km/h 40 % 0.00 in /  0 mm 193.0 W/m2 CLR
13:33 40.0 °F /  4.4 °C 18.2 °F /  -7.7 °C 30.00 in /  1015.8 hPa West 5.9 mph /  9.5 km/h 15.0 mph /  24.1 km/h 41 % 0.00 in /  0 mm 285.0 W/m2 CLR
13:37 40.6 °F /  4.8 °C 18.7 °F /  -7.4 °C 30.00 in /  1015.8 hPa WSW 1.7 mph /  2.7 km/h 12.7 mph /  20.4 km/h 41 % 0.00 in /  0 mm 345.0 W/m2 CLR
13:42 41.0 °F /  5 °C 18.5 °F /  -7.5 °C 30.00 in /  1015.8 hPa WNW 4.8 mph /  7.7 km/h 12.7 mph /  20.4 km/h 40 % 0.00 in /  0 mm 373.0 W/m2 CLR
13:47 41.3 °F /  5.2 °C 18.8 °F /  -7.3 °C 30.00 in /  1015.8 hPa SW 9.0 mph /  14.5 km/h 13.8 mph /  22.2 km/h 40 % 0.00 in /  0 mm 371.0 W/m2 CLR
13:53 41.3 °F /  5.2 °C 18.8 °F /  -7.3 °C 29.99 in /  1015.5 hPa NW 5.3 mph /  8.5 km/h 18.4 mph /  29.6 km/h 40 % 0.00 in /  0 mm 355.0 W/m2 CLR
13:58 41.6 °F /  5.3 °C 18.4 °F /  -7.6 °C 30.00 in /  1015.8 hPa West 8.5 mph /  13.7 km/h 18.4 mph /  29.6 km/h 39 % 0.00 in /  0 mm 330.0 W/m2 CLR
14:03 41.4 °F /  5.2 °C 18.3 °F /  -7.6 °C 30.00 in /  1015.8 hPa WNW 9.1 mph /  14.6 km/h 15.0 mph /  24.1 km/h 39 % 0.00 in /  0 mm 243.0 W/m2 CLR
14:08 41.5 °F /  5.3 °C 18.9 °F /  -7.3 °C 30.00 in /  1015.8 hPa WSW 6.0 mph /  9.7 km/h 16.1 mph /  25.9 km/h 40 % 0.00 in /  0 mm 225.0 W/m2 CLR
14:13 41.4 °F /  5.2 °C 18.9 °F /  -7.3 °C 30.00 in /  1015.8 hPa West 7.7 mph /  12.4 km/h 16.1 mph /  25.9 km/h 40 % 0.00 in /  0 mm 148.0 W/m2 CLR
14:18 41.0 °F /  5 °C 18.5 °F /  -7.5 °C 30.01 in /  1016.1 hPa West 6.5 mph /  10.5 km/h 13.8 mph /  22.2 km/h 40 % 0.00 in /  0 mm 139.0 W/m2 CLR
14:23 40.8 °F /  4.9 °C 18.9 °F /  -7.3 °C 30.00 in /  1015.8 hPa SW 3.9 mph /  6.3 km/h 13.8 mph /  22.2 km/h 41 % 0.00 in /  0 mm 102.0 W/m2 CLR
14:28 40.7 °F /  4.8 °C 19.4 °F /  -7 °C 30.00 in /  1015.8 hPa WSW 6.8 mph /  10.9 km/h 11.5 mph /  18.5 km/h 42 % 0.00 in /  0 mm 232.0 W/m2 CLR
14:33 40.5 °F /  4.7 °C 19.7 °F /  -6.8 °C 30.00 in /  1015.8 hPa SSW 1.8 mph /  2.9 km/h 11.5 mph /  18.5 km/h 43 % 0.00 in /  0 mm 130.0 W/m2 CLR
14:38 40.1 °F /  4.5 °C 19.4 °F /  -7 °C 30.00 in /  1015.8 hPa SSW 3.8 mph /  6.1 km/h 11.5 mph /  18.5 km/h 43 % 0.00 in /  0 mm 125.0 W/m2 CLR
14:43 39.8 °F /  4.3 °C 19.6 °F /  -6.9 °C 30.00 in /  1015.8 hPa SW 0.8 mph /  1.3 km/h 9.2 mph /  14.8 km/h 44 % 0.00 in /  0 mm 97.0 W/m2 CLR
14:48 39.7 °F /  4.3 °C 19.5 °F /  -6.9 °C 30.00 in /  1015.8 hPa West 4.0 mph /  6.4 km/h 11.5 mph /  18.5 km/h 44 % 0.00 in /  0 mm 91.0 W/m2 CLR
14:53 39.6 °F /  4.2 °C 19.5 °F /  -6.9 °C 30.00 in /  1015.8 hPa SW 3.4 mph /  5.5 km/h 11.5 mph /  18.5 km/h 44 % 0.00 in /  0 mm 105.0 W/m2 CLR
14:58 39.6 °F /  4.2 °C 19.5 °F /  -6.9 °C 30.00 in /  1015.8 hPa WSW 6.8 mph /  10.9 km/h 11.5 mph /  18.5 km/h 44 % 0.00 in /  0 mm 90.0 W/m2 CLR
15:03 39.5 °F /  4.2 °C 19.9 °F /  -6.7 °C 29.99 in /  1015.5 hPa WSW 0.5 mph /  0.8 km/h 11.5 mph /  18.5 km/h 45 % 0.00 in /  0 mm 72.0 W/m2 CLR
15:08 39.5 °F /  4.2 °C 20.4 °F /  -6.4 °C 30.00 in /  1015.8 hPa WSW 2.9 mph /  4.7 km/h 11.5 mph /  18.5 km/h 46 % 0.00 in /  0 mm 70.0 W/m2 CLR
15:13 39.4 °F /  4.1 °C 20.3 °F /  -6.5 °C 30.00 in /  1015.8 hPa WSW 2.2 mph /  3.5 km/h 10.4 mph /  16.7 km/h 46 % 0.00 in /  0 mm 76.0 W/m2 CLR
15:18 39.4 °F /  4.1 °C 20.8 °F /  -6.2 °C 30.00 in /  1015.8 hPa WSW 0.2 mph /  0.3 km/h 11.5 mph /  18.5 km/h 47 % 0.00 in /  0 mm 69.0 W/m2 CLR
15:23 39.3 °F /  4.1 °C 20.2 °F /  -6.6 °C 30.00 in /  1015.8 hPa WSW 4.1 mph /  6.6 km/h 13.8 mph /  22.2 km/h 46 % 0.00 in /  0 mm 77.0 W/m2 CLR
15:28 39.3 °F /  4.1 °C 20.7 °F /  -6.3 °C 30.00 in /  1015.8 hPa West 1.8 mph /  2.9 km/h 13.8 mph /  22.2 km/h 47 % 0.00 in /  0 mm 56.0 W/m2 CLR
15:33 39.3 °F /  4.1 °C 20.7 °F /  -6.3 °C 30.00 in /  1015.8 hPa SW 0.4 mph /  0.6 km/h 12.7 mph /  20.4 km/h 47 % 0.00 in /  0 mm 58.0 W/m2 CLR
15:38 39.1 °F /  3.9 °C 20.5 °F /  -6.4 °C 30.00 in /  1015.8 hPa WSW 1.0 mph /  1.6 km/h 10.4 mph /  16.7 km/h 47 % 0.00 in /  0 mm 53.0 W/m2 CLR
15:43 39.0 °F /  3.9 °C 20.5 °F /  -6.4 °C 30.01 in /  1016.1 hPa SW 1.3 mph /  2.1 km/h 10.4 mph /  16.7 km/h 47 % 0.00 in /  0 mm 51.0 W/m2 CLR
15:48 38.9 °F /  3.8 °C 20.9 °F /  -6.2 °C 30.01 in /  1016.1 hPa SW 1.4 mph /  2.3 km/h 10.4 mph /  16.7 km/h 48 % 0.00 in /  0 mm 46.0 W/m2 CLR
15:53 38.8 °F /  3.8 °C 21.3 °F /  -5.9 °C 30.00 in /  1015.8 hPa SW 0.3 mph /  0.5 km/h 5.8 mph /  9.3 km/h 49 % 0.00 in /  0 mm 42.0 W/m2 CLR
15:58 38.7 °F /  3.7 °C 21.2 °F /  -6 °C 30.01 in /  1016.1 hPa SW 0.7 mph /  1.1 km/h 5.8 mph /  9.3 km/h 49 % 0.00 in /  0 mm 33.0 W/m2 CLR
16:03 38.6 °F /  3.7 °C 21.1 °F /  -6.1 °C 30.01 in /  1016.1 hPa SW 0.2 mph /  0.3 km/h 5.8 mph /  9.3 km/h 49 % 0.00 in /  0 mm 28.0 W/m2 CLR
16:08 38.5 °F /  3.6 °C 21.0 °F /  -6.1 °C 30.01 in /  1016.1 hPa Calm   5.8 mph /  9.3 km/h 49 % 0.00 in /  0 mm 25.0 W/m2 CLR
16:13 38.4 °F /  3.6 °C 21.4 °F /  -5.9 °C 30.01 in /  1016.1 hPa Calm   3.5 mph /  5.6 km/h 50 % 0.00 in /  0 mm 18.0 W/m2 CLR
16:18 38.3 °F /  3.5 °C 21.3 °F /  -5.9 °C 30.01 in /  1016.1 hPa Calm   3.5 mph /  5.6 km/h 50 % 0.00 in /  0 mm 12.0 W/m2 CLR
16:23 38.1 °F /  3.4 °C 21.1 °F /  -6.1 °C 30.01 in /  1016.1 hPa SW 0.1 mph /  0.2 km/h 1.2 mph /  1.9 km/h 50 % 0.00 in /  0 mm 9.0 W/m2 CLR
16:24 38.1 °F /  3.4 °C 21.1 °F /  -6.1 °C 30.01 in /  1016.1 hPa SW 0.1 mph /  0.2 km/h 1.2 mph /  1.9 km/h 50 % 0.00 in /  0 mm 9.0 W/m2 CLR
16:29 38.0 °F /  3.3 °C 21.5 °F /  -5.8 °C 30.01 in /  1016.1 hPa Calm   1.2 mph /  1.9 km/h 51 % 0.00 in /  0 mm 7.0 W/m2 CLR
16:34 37.8 °F /  3.2 °C 21.3 °F /  -5.9 °C 30.00 in /  1015.8 hPa Calm   1.2 mph /  1.9 km/h 51 % 0.00 in /  0 mm 0.0 W/m2 CLR
16:39 37.6 °F /  3.1 °C 21.5 °F /  -5.8 °C 30.00 in /  1015.8 hPa Calm     52 % 0.00 in /  0 mm 0.0 W/m2 CLR
16:44 37.3 °F /  2.9 °C 21.3 °F /  -5.9 °C 30.00 in /  1015.8 hPa Calm     52 % 0.00 in /  0 mm 0.0 W/m2 CLR
16:49 37.1 °F /  2.8 °C 21.1 °F /  -6.1 °C 30.00 in /  1015.8 hPa Calm     52 % 0.00 in /  0 mm 0.0 W/m2 CLR
16:54 36.9 °F /  2.7 °C 20.9 °F /  -6.2 °C 30.00 in /  1015.8 hPa Calm     52 % 0.00 in /  0 mm 0.0 W/m2 CLR
16:59 36.8 °F /  2.7 °C 21.3 °F /  -5.9 °C 30.01 in /  1016.1 hPa Calm     53 % 0.00 in /  0 mm 0.0 W/m2 CLR
17:04 36.7 °F /  2.6 °C 20.7 °F /  -6.3 °C 30.01 in /  1016.1 hPa Calm     52 % 0.00 in /  0 mm 0.0 W/m2 CLR
17:09 36.6 °F /  2.6 °C 20.6 °F /  -6.3 °C 30.01 in /  1016.1 hPa Calm     52 % 0.00 in /  0 mm 0.0 W/m2 CLR
17:14 36.5 °F /  2.5 °C 21.0 °F /  -6.1 °C 30.01 in /  1016.1 hPa Calm     53 % 0.00 in /  0 mm 0.0 W/m2 CLR
17:19 36.4 °F /  2.4 °C 20.9 °F /  -6.2 °C 30.01 in /  1016.1 hPa Calm     53 % 0.00 in /  0 mm 0.0 W/m2 CLR
17:24 36.4 °F /  2.4 °C 20.9 °F /  -6.2 °C 30.01 in /  1016.1 hPa Calm     53 % 0.00 in /  0 mm 0.0 W/m2 CLR
17:29 36.3 °F /  2.4 °C 20.8 °F /  -6.2 °C 30.01 in /  1016.1 hPa Calm     53 % 0.00 in /  0 mm 0.0 W/m2 CLR
17:34 36.2 °F /  2.3 °C 20.7 °F /  -6.3 °C 30.01 in /  1016.1 hPa Calm     53 % 0.00 in /  0 mm 0.0 W/m2 CLR
17:39 36.3 °F /  2.4 °C 20.8 °F /  -6.2 °C 30.01 in /  1016.1 hPa Calm     53 % 0.00 in /  0 mm 0.0 W/m2 CLR
17:44 36.2 °F /  2.3 °C 20.7 °F /  -6.3 °C 30.01 in /  1016.1 hPa Calm   2.3 mph /  3.7 km/h 53 % 0.00 in /  0 mm 0.0 W/m2 CLR
17:49 36.1 °F /  2.3 °C 20.6 °F /  -6.3 °C 30.02 in /  1016.5 hPa SSW 0.1 mph /  0.2 km/h 3.5 mph /  5.6 km/h 53 % 0.00 in /  0 mm 0.0 W/m2 CLR
17:54 36.0 °F /  2.2 °C 20.9 °F /  -6.2 °C 30.01 in /  1016.1 hPa Calm   3.5 mph /  5.6 km/h 54 % 0.00 in /  0 mm 0.0 W/m2 CLR
17:59 36.0 °F /  2.2 °C 20.9 °F /  -6.2 °C 30.01 in /  1016.1 hPa Calm   2.3 mph /  3.7 km/h 54 % 0.00 in /  0 mm 0.0 W/m2 CLR
18:04 35.9 °F /  2.2 °C 20.9 °F /  -6.2 °C 30.01 in /  1016.1 hPa Calm     54 % 0.00 in /  0 mm 0.0 W/m2 CLR
18:09 35.8 °F /  2.1 °C 21.2 °F /  -6 °C 30.01 in /  1016.1 hPa Calm     55 % 0.00 in /  0 mm 0.0 W/m2 CLR
18:14 35.6 °F /  2 °C 21.4 °F /  -5.9 °C 30.01 in /  1016.1 hPa Calm     56 % 0.00 in /  0 mm 0.0 W/m2 CLR
18:19 35.5 °F /  1.9 °C 21.3 °F /  -5.9 °C 30.00 in /  1015.8 hPa Calm     56 % 0.00 in /  0 mm 0.0 W/m2 CLR
18:25 35.3 °F /  1.8 °C 21.2 °F /  -6 °C 30.01 in /  1016.1 hPa Calm     56 % 0.00 in /  0 mm 0.0 W/m2 CLR
18:30 35.4 °F /  1.9 °C 21.2 °F /  -6 °C 30.01 in /  1016.1 hPa Calm     56 % 0.00 in /  0 mm 0.0 W/m2 CLR
18:35 35.5 °F /  1.9 °C 21.3 °F /  -5.9 °C 30.01 in /  1016.1 hPa Calm     56 % 0.00 in /  0 mm 0.0 W/m2 CLR
18:40 35.7 °F /  2.1 °C 21.1 °F /  -6.1 °C 30.01 in /  1016.1 hPa Calm   3.5 mph /  5.6 km/h 55 % 0.00 in /  0 mm 0.0 W/m2 CLR
18:45 35.9 °F /  2.2 °C 21.3 °F /  -5.9 °C 30.01 in /  1016.1 hPa SSW 0.9 mph /  1.4 km/h 3.5 mph /  5.6 km/h 55 % 0.00 in /  0 mm 0.0 W/m2 CLR
18:50 36.0 °F /  2.2 °C 20.9 °F /  -6.2 °C 30.01 in /  1016.1 hPa SSW 0.3 mph /  0.5 km/h 3.5 mph /  5.6 km/h 54 % 0.00 in /  0 mm 0.0 W/m2 CLR
18:55 36.1 °F /  2.3 °C 21.0 °F /  -6.1 °C 30.01 in /  1016.1 hPa Calm   3.5 mph /  5.6 km/h 54 % 0.00 in /  0 mm 0.0 W/m2 CLR
19:00 36.2 °F /  2.3 °C 21.1 °F /  -6.1 °C 30.01 in /  1016.1 hPa Calm   3.5 mph /  5.6 km/h 54 % 0.00 in /  0 mm 0.0 W/m2 CLR
19:05 36.2 °F /  2.3 °C 21.1 °F /  -6.1 °C 30.02 in /  1016.5 hPa Calm   2.3 mph /  3.7 km/h 54 % 0.00 in /  0 mm 0.0 W/m2 CLR
19:10 36.0 °F /  2.2 °C 21.4 °F /  -5.9 °C 30.02 in /  1016.5 hPa Calm   1.2 mph /  1.9 km/h 55 % 0.00 in /  0 mm 0.0 W/m2 CLR
19:15 35.8 °F /  2.1 °C 21.6 °F /  -5.8 °C 30.02 in /  1016.5 hPa Calm     56 % 0.00 in /  0 mm 0.0 W/m2 CLR
19:20 35.7 °F /  2.1 °C 21.5 °F /  -5.8 °C 30.02 in /  1016.5 hPa Calm     56 % 0.00 in /  0 mm 0.0 W/m2 CLR
19:25 35.5 °F /  1.9 °C 21.3 °F /  -5.9 °C 30.02 in /  1016.5 hPa Calm     56 % 0.00 in /  0 mm 0.0 W/m2 CLR
19:30 35.6 °F /  2 °C 21.4 °F /  -5.9 °C 30.02 in /  1016.5 hPa Calm     56 % 0.00 in /  0 mm 0.0 W/m2 CLR
19:35 35.5 °F /  1.9 °C 21.8 °F /  -5.7 °C 30.02 in /  1016.5 hPa Calm     57 % 0.00 in /  0 mm 0.0 W/m2 CLR
19:40 35.3 °F /  1.8 °C 21.6 °F /  -5.8 °C 30.01 in /  1016.1 hPa Calm     57 % 0.00 in /  0 mm 0.0 W/m2 CLR
19:45 35.2 °F /  1.8 °C 21.5 °F /  -5.8 °C 30.01 in /  1016.1 hPa Calm     57 % 0.00 in /  0 mm 0.0 W/m2 CLR
19:50 35.2 °F /  1.8 °C 21.9 °F /  -5.6 °C 30.01 in /  1016.1 hPa Calm     58 % 0.00 in /  0 mm 0.0 W/m2 CLR
19:55 35.0 °F /  1.7 °C 21.7 °F /  -5.7 °C 30.01 in /  1016.1 hPa Calm     58 % 0.00 in /  0 mm 0.0 W/m2 CLR
20:00 35.0 °F /  1.7 °C 21.7 °F /  -5.7 °C 30.02 in /  1016.5 hPa Calm     58 % 0.00 in /  0 mm 0.0 W/m2 CLR
20:01 35.0 °F /  1.7 °C 21.7 °F /  -5.7 °C 30.02 in /  1016.5 hPa Calm     58 % 0.00 in /  0 mm 0.0 W/m2 CLR
20:06 34.7 °F /  1.5 °C 21.8 °F /  -5.7 °C 30.02 in /  1016.5 hPa Calm     59 % 0.00 in /  0 mm 0.0 W/m2 CLR
20:11 34.4 °F /  1.3 °C 21.9 °F /  -5.6 °C 30.02 in /  1016.5 hPa Calm     60 % 0.00 in /  0 mm 0.0 W/m2 CLR
20:16 34.1 °F /  1.2 °C 22.0 °F /  -5.6 °C 30.01 in /  1016.1 hPa Calm     61 % 0.00 in /  0 mm 0.0 W/m2 CLR
20:21 33.9 °F /  1.1 °C 22.2 °F /  -5.4 °C 30.02 in /  1016.5 hPa Calm     62 % 0.00 in /  0 mm 0.0 W/m2 CLR
20:26 33.7 °F /  0.9 °C 22.4 °F /  -5.3 °C 30.01 in /  1016.1 hPa Calm     63 % 0.00 in /  0 mm 0.0 W/m2 CLR
20:31 33.4 °F /  0.8 °C 22.5 °F /  -5.3 °C 30.02 in /  1016.5 hPa Calm     64 % 0.00 in /  0 mm 0.0 W/m2 CLR
20:36 33.5 °F /  0.8 °C 22.2 °F /  -5.4 °C 30.02 in /  1016.5 hPa Calm     63 % 0.00 in /  0 mm 0.0 W/m2 CLR
20:41 33.1 °F /  0.6 °C 22.6 °F /  -5.2 °C 30.02 in /  1016.5 hPa Calm     65 % 0.00 in /  0 mm 0.0 W/m2 CLR
20:46 32.9 °F /  0.5 °C 22.4 °F /  -5.3 °C 30.01 in /  1016.1 hPa Calm     65 % 0.00 in /  0 mm 0.0 W/m2 CLR
20:51 33.1 °F /  0.6 °C 22.6 °F /  -5.2 °C 30.01 in /  1016.1 hPa Calm     65 % 0.00 in /  0 mm 0.0 W/m2 CLR
20:56 32.9 °F /  0.5 °C 22.8 °F /  -5.1 °C 30.02 in /  1016.5 hPa Calm     66 % 0.00 in /  0 mm 0.0 W/m2 CLR
21:01 32.8 °F /  0.4 °C 22.7 °F /  -5.2 °C 30.02 in /  1016.5 hPa Calm     66 % 0.00 in /  0 mm 0.0 W/m2 CLR
21:06 32.9 °F /  0.5 °C 22.8 °F /  -5.1 °C 30.02 in /  1016.5 hPa Calm     66 % 0.00 in /  0 mm 0.0 W/m2 SCT
21:11 32.7 °F /  0.4 °C 22.9 °F /  -5.1 °C 30.02 in /  1016.5 hPa Calm     67 % 0.00 in /  0 mm 0.0 W/m2 SCT
21:16 32.5 °F /  0.3 °C 23.1 °F /  -4.9 °C 30.02 in /  1016.5 hPa Calm     68 % 0.00 in /  0 mm 0.0 W/m2 SCT
21:21 32.4 °F /  0.2 °C 23.0 °F /  -5 °C 30.02 in /  1016.5 hPa Calm     68 % 0.00 in /  0 mm 0.0 W/m2 SCT
21:26 32.2 °F /  0.1 °C 22.8 °F /  -5.1 °C 30.01 in /  1016.1 hPa Calm     68 % 0.00 in /  0 mm 0.0 W/m2 SCT
21:31 31.9 °F /  -0.1 °C 22.9 °F /  -5.1 °C 30.01 in /  1016.1 hPa Calm     69 % 0.00 in /  0 mm 0.0 W/m2 SCT
21:36 31.9 °F /  -0.1 °C 22.9 °F /  -5.1 °C 30.01 in /  1016.1 hPa Calm     69 % 0.00 in /  0 mm 0.0 W/m2 SCT
21:41 31.9 °F /  -0.1 °C 22.9 °F /  -5.1 °C 30.01 in /  1016.1 hPa Calm     69 % 0.00 in /  0 mm 0.0 W/m2 SCT
21:46 31.8 °F /  -0.1 °C 22.8 °F /  -5.1 °C 30.01 in /  1016.1 hPa Calm     69 % 0.00 in /  0 mm 0.0 W/m2 SCT
21:51 31.7 °F /  -0.2 °C 23.0 °F /  -5 °C 30.01 in /  1016.1 hPa Calm     70 % 0.00 in /  0 mm 0.0 W/m2 SCT
21:56 31.6 °F /  -0.2 °C 22.9 °F /  -5.1 °C 30.01 in /  1016.1 hPa Calm     70 % 0.00 in /  0 mm 0.0 W/m2 SCT
22:01 31.6 °F /  -0.2 °C 22.6 °F /  -5.2 °C 30.01 in /  1016.1 hPa Calm     69 % 0.00 in /  0 mm 0.0 W/m2 CLR
22:06 31.6 °F /  -0.2 °C 22.6 °F /  -5.2 °C 30.01 in /  1016.1 hPa Calm     69 % 0.00 in /  0 mm 0.0 W/m2 CLR
22:12 31.7 °F /  -0.2 °C 22.7 °F /  -5.2 °C 30.01 in /  1016.1 hPa Calm     69 % 0.00 in /  0 mm 0.0 W/m2 CLR
22:17 31.3 °F /  -0.4 °C 22.6 °F /  -5.2 °C 30.01 in /  1016.1 hPa Calm     70 % 0.00 in /  0 mm 0.0 W/m2 CLR
22:22 31.0 °F /  -0.6 °C 22.7 °F /  -5.2 °C 30.02 in /  1016.5 hPa Calm     71 % 0.00 in /  0 mm 0.0 W/m2 CLR
22:24 30.9 °F /  -0.6 °C 22.6 °F /  -5.2 °C 30.02 in /  1016.5 hPa Calm     71 % 0.00 in /  0 mm 0.0 W/m2 CLR
22:29 30.7 °F /  -0.7 °C 22.4 °F /  -5.3 °C 30.02 in /  1016.5 hPa Calm     71 % 0.00 in /  0 mm 0.0 W/m2 CLR
22:34 30.6 °F /  -0.8 °C 22.6 °F /  -5.2 °C 30.02 in /  1016.5 hPa Calm     72 % 0.00 in /  0 mm 0.0 W/m2 CLR
22:39 30.6 °F /  -0.8 °C 22.6 °F /  -5.2 °C 30.02 in /  1016.5 hPa Calm     72 % 0.00 in /  0 mm 0.0 W/m2 CLR
22:44 30.7 °F /  -0.7 °C 22.7 °F /  -5.2 °C 30.02 in /  1016.5 hPa Calm     72 % 0.00 in /  0 mm 0.0 W/m2 CLR
22:49 30.6 °F /  -0.8 °C 22.6 °F /  -5.2 °C 30.02 in /  1016.5 hPa Calm     72 % 0.00 in /  0 mm 0.0 W/m2 CLR
22:54 30.3 °F /  -0.9 °C 22.4 °F /  -5.3 °C 30.02 in /  1016.5 hPa Calm     72 % 0.00 in /  0 mm 0.0 W/m2 CLR
22:59 30.2 °F /  -1 °C 22.6 °F /  -5.2 °C 30.02 in /  1016.5 hPa Calm     73 % 0.00 in /  0 mm 0.0 W/m2 CLR
23:04 30.1 °F /  -1.1 °C 22.5 °F /  -5.3 °C 30.01 in /  1016.1 hPa Calm     73 % 0.00 in /  0 mm 0.0 W/m2 CLR
23:09 29.9 °F /  -1.2 °C 22.6 °F /  -5.2 °C 30.02 in /  1016.5 hPa Calm     74 % 0.00 in /  0 mm 0.0 W/m2 CLR
23:14 29.8 °F /  -1.2 °C 22.8 °F /  -5.1 °C 30.01 in /  1016.1 hPa Calm     75 % 0.00 in /  0 mm 0.0 W/m2 CLR
23:19 29.6 °F /  -1.3 °C 23.0 °F /  -5 °C 30.02 in /  1016.5 hPa Calm     76 % 0.00 in /  0 mm 0.0 W/m2 CLR
23:24 29.4 °F /  -1.4 °C 22.8 °F /  -5.1 °C 30.02 in /  1016.5 hPa Calm     76 % 0.00 in /  0 mm 0.0 W/m2 CLR
23:29 29.4 °F /  -1.4 °C 22.8 °F /  -5.1 °C 30.02 in /  1016.5 hPa Calm     76 % 0.00 in /  0 mm 0.0 W/m2 CLR
23:34 29.3 °F /  -1.5 °C 22.7 °F /  -5.2 °C 30.02 in /  1016.5 hPa Calm     76 % 0.00 in /  0 mm 0.0 W/m2 CLR
23:39 29.2 °F /  -1.6 °C 22.9 °F /  -5.1 °C 30.02 in /  1016.5 hPa Calm     77 % 0.00 in /  0 mm 0.0 W/m2 CLR
23:44 29.3 °F /  -1.5 °C 23.0 °F /  -5 °C 30.02 in /  1016.5 hPa Calm     77 % 0.00 in /  0 mm 0.0 W/m2 CLR
23:49 29.4 °F /  -1.4 °C 23.4 °F /  -4.8 °C 30.02 in /  1016.5 hPa Calm     78 % 0.00 in /  0 mm 0.0 W/m2 CLR
23:55 29.5 °F /  -1.4 °C 23.5 °F /  -4.7 °C 30.02 in /  1016.5 hPa Calm     78 % 0.00 in /  0 mm 0.0 W/m2 CLR
Air Products Campus Weather
Compliments of Weather Underground - 3.5 mb